createdAt,value
2022-12-11T00:02:17.382Z,44.75
2022-12-11T00:14:21.619Z,46.17
2022-12-11T00:20:23.672Z,36.67
2022-12-11T00:26:26.173Z,47.50
2022-12-11T00:32:29.128Z,48.67
2022-12-11T00:38:32.477Z,45.08
2022-12-11T00:44:34.888Z,42.00
2022-12-11T00:50:37.917Z,48.40
2022-12-11T00:56:40.408Z,44.83
2022-12-11T01:02:42.575Z,50.00
2022-12-11T01:08:46.311Z,48.05
2022-12-11T01:14:48.452Z,48.67
2022-12-11T01:20:50.982Z,42.53
2022-12-11T01:26:53.158Z,50.28
2022-12-11T01:32:55.584Z,41.92
2022-12-11T01:38:58.974Z,44.17
2022-12-11T01:45:26.599Z,49.45
2022-12-11T01:51:31.873Z,49.53
2022-12-11T01:57:34.272Z,41.35
2022-12-11T02:03:36.528Z,49.28
2022-12-11T02:09:41.662Z,34.10
2022-12-11T02:16:02.773Z,36.00
2022-12-11T02:22:10.890Z,36.08
2022-12-11T02:28:18.886Z,43.20
2022-12-11T02:34:29.009Z,37.60
2022-12-11T02:40:33.189Z,37.65
2022-12-11T02:46:37.540Z,33.45
2022-12-11T02:52:41.984Z,41.03
2022-12-11T02:58:52.641Z,33.42
2022-12-11T03:04:58.034Z,42.75
2022-12-11T03:17:17.476Z,34.80
2022-12-11T03:23:25.778Z,34.95
2022-12-11T03:29:36.958Z,42.88
2022-12-11T03:35:49.185Z,36.00
2022-12-11T03:41:52.622Z,33.55
2022-12-11T03:47:57.230Z,32.13
2022-12-11T03:54:00.205Z,32.35
2022-12-11T04:00:05.455Z,30.27
2022-12-11T04:06:13.992Z,37.55
2022-12-11T04:12:16.392Z,36.88
2022-12-11T04:18:37.236Z,31.80
2022-12-11T04:24:39.575Z,27.63
2022-12-11T04:30:41.812Z,28.30
2022-12-11T04:36:44.142Z,29.92
2022-12-11T04:42:46.634Z,26.90
2022-12-11T04:48:55.447Z,36.03
2022-12-11T04:55:19.352Z,23.73
2022-12-11T05:01:22.776Z,27.85
2022-12-11T05:07:25.210Z,21.65
2022-12-11T05:13:28.355Z,26.20
2022-12-11T05:19:30.701Z,24.30
2022-12-11T05:25:32.860Z,26.05
2022-12-11T05:31:34.987Z,21.00
2022-12-11T05:37:37.184Z,32.25
2022-12-11T05:43:39.389Z,22.87
2022-12-11T05:49:41.610Z,28.00
2022-12-11T05:55:43.851Z,22.90
2022-12-11T06:01:46.347Z,30.13
2022-12-11T06:07:48.676Z,30.42
2022-12-11T06:13:51.315Z,20.02
2022-12-11T06:20:11.190Z,27.73
2022-12-11T06:26:14.727Z,31.83
2022-12-11T06:32:17.276Z,35.30
2022-12-11T06:38:19.589Z,32.88
2022-12-11T06:44:21.810Z,41.10
2022-12-11T06:50:23.876Z,29.50
2022-12-11T06:56:26.439Z,39.75
2022-12-11T07:02:28.749Z,39.60
2022-12-11T07:08:32.298Z,27.35
2022-12-11T07:14:34.648Z,34.88
2022-12-11T07:20:37.026Z,28.33
2022-12-11T07:26:39.438Z,38.92
2022-12-11T07:32:41.938Z,27.13
2022-12-11T07:38:44.232Z,28.38
2022-12-11T07:44:46.259Z,22.88
2022-12-11T07:50:48.466Z,23.30
2022-12-11T07:56:53.678Z,29.77
2022-12-11T08:02:56.123Z,26.92
2022-12-11T08:09:00.000Z,15.10
2022-12-11T08:15:02.488Z,17.75
2022-12-11T08:21:08.540Z,14.05
2022-12-11T08:27:10.732Z,11.43
2022-12-11T08:33:13.018Z,9.20
2022-12-11T08:45:17.502Z,6.55
2022-12-11T08:51:23.089Z,8.95
2022-12-11T08:57:25.205Z,8.02
2022-12-11T09:03:47.572Z,6.28
2022-12-11T09:09:49.893Z,3.90
2022-12-11T09:21:54.438Z,9.63
2022-12-11T09:27:56.757Z,5.72
2022-12-11T09:34:02.087Z,6.10
2022-12-11T09:40:07.757Z,10.88
2022-12-11T09:46:13.785Z,7.18
2022-12-11T09:52:32.108Z,9.98
2022-12-11T09:58:41.158Z,8.07
2022-12-11T10:04:52.582Z,13.75
2022-12-11T10:11:27.204Z,17.50
2022-12-11T10:17:32.361Z,21.80
2022-12-11T10:23:43.715Z,10.70
2022-12-11T10:29:47.342Z,14.70
2022-12-11T10:35:53.756Z,12.18
2022-12-11T10:41:57.458Z,9.32
2022-12-11T10:48:07.736Z,11.85
2022-12-11T10:54:29.502Z,15.13
2022-12-11T11:00:38.756Z,9.50
2022-12-11T11:06:41.726Z,13.32
2022-12-11T11:12:47.967Z,14.00
2022-12-11T11:18:57.168Z,11.98
2022-12-11T11:25:00.139Z,13.55
2022-12-11T11:31:04.627Z,12.68
2022-12-11T11:37:30.554Z,14.52
2022-12-11T11:43:49.328Z,5.47
2022-12-11T11:50:03.478Z,12.23
2022-12-11T11:56:21.496Z,7.03
2022-12-11T12:02:24.093Z,12.02
2022-12-11T16:56:02.447Z,9.18
2022-12-11T17:02:04.968Z,11.80
2022-12-11T17:08:07.828Z,9.82
2022-12-11T17:14:10.437Z,12.48
2022-12-11T17:20:20.842Z,7.75
2022-12-11T17:26:25.531Z,6.55
2022-12-11T17:32:27.807Z,4.45
2022-12-11T17:38:29.925Z,6.85
2022-12-11T17:44:32.176Z,6.88
2022-12-11T17:50:34.373Z,11.23
2022-12-11T17:56:37.106Z,6.65
2022-12-11T18:02:39.733Z,12.25
2022-12-11T18:08:42.594Z,10.65
2022-12-11T18:14:44.867Z,14.38
2022-12-11T18:20:48.667Z,8.43
2022-12-11T18:26:50.728Z,5.75
2022-12-11T18:32:52.852Z,12.50
2022-12-11T18:38:59.569Z,6.88
2022-12-11T18:45:02.192Z,7.20
2022-12-11T18:57:14.225Z,6.70
2022-12-11T19:03:16.761Z,6.25
2022-12-11T19:09:19.092Z,7.95
2022-12-11T19:15:24.004Z,6.57
2022-12-11T19:21:42.993Z,10.43
2022-12-11T19:27:47.313Z,9.05
2022-12-11T19:33:50.169Z,8.13
2022-12-11T19:39:52.392Z,10.68
2022-12-11T19:45:54.831Z,19.80
2022-12-11T19:51:57.074Z,10.90
2022-12-11T19:57:59.506Z,16.45
2022-12-11T20:04:07.332Z,16.73
2022-12-11T20:10:09.785Z,15.90
2022-12-11T20:16:13.510Z,15.98
2022-12-11T20:22:15.891Z,16.80
2022-12-11T20:28:18.622Z,21.60
2022-12-11T20:34:20.929Z,19.23
2022-12-11T20:40:23.152Z,19.88
2022-12-11T20:46:27.600Z,21.95
2022-12-11T20:52:29.830Z,25.45
2022-12-11T20:58:32.831Z,18.70
2022-12-11T21:04:41.300Z,18.67
2022-12-11T21:10:46.482Z,20.70
2022-12-11T21:16:48.863Z,25.35
2022-12-11T21:22:50.993Z,25.45
2022-12-11T21:28:53.590Z,20.45
2022-12-11T21:40:58.348Z,23.77
2022-12-11T21:47:00.695Z,17.15
2022-12-11T21:53:02.972Z,18.88
2022-12-11T21:59:05.867Z,18.55
2022-12-11T22:05:08.705Z,23.25
2022-12-11T22:11:11.372Z,23.60
2022-12-11T22:23:18.689Z,21.85
2022-12-11T22:29:21.010Z,21.83
2022-12-11T22:35:27.160Z,25.10
2022-12-11T22:41:32.034Z,19.80
2022-12-11T22:47:34.122Z,22.08
2022-12-11T22:53:36.849Z,23.98
2022-12-11T22:59:39.124Z,22.60
2022-12-11T23:05:41.515Z,22.98
2022-12-11T23:11:44.029Z,19.15
2022-12-11T23:17:46.522Z,20.90
2022-12-11T23:29:51.345Z,21.25
2022-12-11T23:35:53.648Z,27.13
2022-12-11T23:41:56.252Z,26.30
2022-12-11T23:47:58.718Z,19.67
2022-12-11T23:54:05.150Z,30.15
